sensor_id;sensor_type;location;lat;lon;timestamp;pressure;altitude;pressure_sealevel;temperature;humidity
25722;BME280;13578;53.450;15.496;2023-02-16T00:02:57;100376.34;;;-0.99;100.00
25722;BME280;13578;53.450;15.496;2023-02-16T00:05:58;100368.22;;;-0.98;100.00
25722;BME280;13578;53.450;15.496;2023-02-16T00:08:59;100370.03;;;-0.98;100.00
25722;BME280;13578;53.450;15.496;2023-02-16T00:11:59;100373.16;;;-1.10;100.00
25722;BME280;13578;53.450;15.496;2023-02-16T00:15:19;100367.22;;;-1.22;100.00
25722;BME280;13578;53.450;15.496;2023-02-16T00:18:20;100372.75;;;-1.26;100.00
25722;BME280;13578;53.450;15.496;2023-02-16T00:21:21;100368.19;;;-1.24;100.00
25722;BME280;13578;53.450;15.496;2023-02-16T00:24:23;100362.53;;;-1.17;100.00
25722;BME280;13578;53.450;15.496;2023-02-16T00:27:23;100358.94;;;-1.16;100.00
25722;BME280;13578;53.450;15.496;2023-02-16T00:30:24;100360.75;;;-1.16;100.00
25722;BME280;13578;53.450;15.496;2023-02-16T00:33:25;100357.69;;;-1.32;100.00
25722;BME280;13578;53.450;15.496;2023-02-16T00:36:25;100360.47;;;-1.35;100.00
25722;BME280;13578;53.450;15.496;2023-02-16T00:39:26;100353.41;;;-1.39;100.00
25722;BME280;13578;53.450;15.496;2023-02-16T00:42:30;100348.91;;;-1.39;100.00
25722;BME280;13578;53.450;15.496;2023-02-16T00:45:36;100350.47;;;-1.32;100.00
25722;BME280;13578;53.450;15.496;2023-02-16T00:48:37;100348.47;;;-1.25;100.00
25722;BME280;13578;53.450;15.496;2023-02-16T00:51:37;100354.00;;;-1.30;100.00
25722;BME280;13578;53.450;15.496;2023-02-16T00:54:38;100340.91;;;-1.42;100.00
25722;BME280;13578;53.450;15.496;2023-02-16T01:00:50;100348.00;;;-1.39;100.00
25722;BME280;13578;53.450;15.496;2023-02-16T01:03:51;100346.94;;;-1.34;100.00
25722;BME280;13578;53.450;15.496;2023-02-16T01:06:52;100342.25;;;-1.27;100.00
25722;BME280;13578;53.450;15.496;2023-02-16T01:10:11;100343.22;;;-1.30;100.00
25722;BME280;13578;53.450;15.496;2023-02-16T01:13:31;100354.81;;;-1.28;100.00
25722;BME280;13578;53.450;15.496;2023-02-16T01:16:37;100356.72;;;-1.31;100.00
25722;BME280;13578;53.450;15.496;2023-02-16T01:19:38;100357.56;;;-1.29;100.00
25722;BME280;13578;53.450;15.496;2023-02-16T01:22:38;100347.63;;;-1.27;100.00
25722;BME280;13578;53.450;15.496;2023-02-16T01:25:39;100353.03;;;-1.27;100.00
25722;BME280;13578;53.450;15.496;2023-02-16T01:28:41;100345.78;;;-1.25;100.00
25722;BME280;13578;53.450;15.496;2023-02-16T01:31:42;100352.81;;;-1.21;100.00
25722;BME280;13578;53.450;15.496;2023-02-16T01:34:43;100341.19;;;-1.21;100.00
25722;BME280;13578;53.450;15.496;2023-02-16T01:37:44;100341.19;;;-1.23;100.00
25722;BME280;13578;53.450;15.496;2023-02-16T01:44:45;100348.13;;;-1.14;100.00
25722;BME280;13578;53.450;15.496;2023-02-16T01:47:53;100333.50;;;-1.07;100.00
25722;BME280;13578;53.450;15.496;2023-02-16T01:51:06;100333.81;;;-0.62;100.00
25722;BME280;13578;53.450;15.496;2023-02-16T01:57:40;100330.50;;;-0.45;100.00
25722;BME280;13578;53.450;15.496;2023-02-16T02:03:52;100328.59;;;-0.18;100.00
25722;BME280;13578;53.450;15.496;2023-02-16T02:07:27;100328.16;;;-0.06;100.00
25722;BME280;13578;53.450;15.496;2023-02-16T02:10:44;100323.50;;;-0.02;100.00
25722;BME280;13578;53.450;15.496;2023-02-16T02:14:06;100319.63;;;0.05;100.00
25722;BME280;13578;53.450;15.496;2023-02-16T02:17:12;100310.13;;;0.19;100.00
25722;BME280;13578;53.450;15.496;2023-02-16T02:31:06;100301.59;;;0.29;100.00
25722;BME280;13578;53.450;15.496;2023-02-16T02:34:33;100293.50;;;0.29;100.00
25722;BME280;13578;53.450;15.496;2023-02-16T02:37:56;100290.41;;;0.17;100.00
25722;BME280;13578;53.450;15.496;2023-02-16T02:41:07;100298.97;;;0.28;100.00
25722;BME280;13578;53.450;15.496;2023-02-16T02:44:11;100290.03;;;0.26;100.00
25722;BME280;13578;53.450;15.496;2023-02-16T02:47:14;100292.66;;;0.27;100.00
25722;BME280;13578;53.450;15.496;2023-02-16T02:53:42;100270.63;;;0.38;100.00
25722;BME280;13578;53.450;15.496;2023-02-16T02:56:48;100270.63;;;0.38;100.00
25722;BME280;13578;53.450;15.496;2023-02-16T03:03:35;100268.75;;;0.40;100.00
25722;BME280;13578;53.450;15.496;2023-02-16T03:06:40;100261.84;;;0.33;100.00
25722;BME280;13578;53.450;15.496;2023-02-16T03:09:43;100273.41;;;0.37;100.00
25722;BME280;13578;53.450;15.496;2023-02-16T03:12:44;100267.56;;;0.47;100.00
25722;BME280;13578;53.450;15.496;2023-02-16T03:15:47;100268.50;;;0.46;100.00
25722;BME280;13578;53.450;15.496;2023-02-16T03:18:49;100260.41;;;0.46;100.00
25722;BME280;13578;53.450;15.496;2023-02-16T03:22:08;100260.41;;;0.46;100.00
25722;BME280;13578;53.450;15.496;2023-02-16T03:25:33;100263.00;;;0.50;100.00
25722;BME280;13578;53.450;15.496;2023-02-16T03:28:54;100263.00;;;0.50;100.00
25722;BME280;13578;53.450;15.496;2023-02-16T03:32:14;100261.59;;;0.39;100.00
25722;BME280;13578;53.450;15.496;2023-02-16T03:35:15;100256.88;;;0.44;100.00
25722;BME280;13578;53.450;15.496;2023-02-16T03:38:16;100257.22;;;0.37;100.00
25722;BME280;13578;53.450;15.496;2023-02-16T03:41:16;100260.56;;;0.43;100.00
25722;BME280;13578;53.450;15.496;2023-02-16T03:44:18;100260.28;;;0.50;100.00
25722;BME280;13578;53.450;15.496;2023-02-16T03:47:18;100256.78;;;0.47;100.00
25722;BME280;13578;53.450;15.496;2023-02-16T03:50:19;100263.72;;;0.31;100.00
25722;BME280;13578;53.450;15.496;2023-02-16T03:53:20;100255.06;;;0.23;100.00
25722;BME280;13578;53.450;15.496;2023-02-16T03:56:21;100245.75;;;0.30;100.00
25722;BME280;13578;53.450;15.496;2023-02-16T03:59:22;100241.69;;;0.20;100.00
25722;BME280;13578;53.450;15.496;2023-02-16T04:02:22;100235.63;;;0.14;100.00
25722;BME280;13578;53.450;15.496;2023-02-16T04:05:23;100240.28;;;0.09;100.00
25722;BME280;13578;53.450;15.496;2023-02-16T04:08:24;100223.47;;;0.03;100.00
25722;BME280;13578;53.450;15.496;2023-02-16T04:11:24;100222.06;;;-0.08;100.00
25722;BME280;13578;53.450;15.496;2023-02-16T04:14:43;100215.91;;;-0.11;100.00
25722;BME280;13578;53.450;15.496;2023-02-16T04:17:44;100220.31;;;-0.09;100.00
25722;BME280;13578;53.450;15.496;2023-02-16T04:20:45;100213.53;;;-0.19;100.00
25722;BME280;13578;53.450;15.496;2023-02-16T04:23:45;100208.25;;;-0.22;100.00
25722;BME280;13578;53.450;15.496;2023-02-16T04:26:46;100211.00;;;-0.24;100.00
25722;BME280;13578;53.450;15.496;2023-02-16T04:29:48;100207.66;;;-0.30;100.00
25722;BME280;13578;53.450;15.496;2023-02-16T04:32:49;100209.66;;;-0.36;100.00
25722;BME280;13578;53.450;15.496;2023-02-16T04:35:50;100219.56;;;-0.36;100.00
25722;BME280;13578;53.450;15.496;2023-02-16T04:38:51;100215.47;;;-0.46;100.00
25722;BME280;13578;53.450;15.496;2023-02-16T04:41:51;100219.97;;;-0.47;100.00
25722;BME280;13578;53.450;15.496;2023-02-16T04:44:52;100225.50;;;-0.26;100.00
25722;BME280;13578;53.450;15.496;2023-02-16T04:47:54;100215.88;;;-0.34;100.00
25722;BME280;13578;53.450;15.496;2023-02-16T04:50:55;100222.38;;;-0.39;100.00
25722;BME280;13578;53.450;15.496;2023-02-16T04:53:55;100218.75;;;-0.38;100.00
25722;BME280;13578;53.450;15.496;2023-02-16T04:56:56;100215.47;;;-0.46;100.00
25722;BME280;13578;53.450;15.496;2023-02-16T04:59:57;100220.03;;;-0.49;100.00
25722;BME280;13578;53.450;15.496;2023-02-16T05:02:57;100214.94;;;-0.56;100.00
25722;BME280;13578;53.450;15.496;2023-02-16T05:05:58;100205.84;;;-0.54;100.00
25722;BME280;13578;53.450;15.496;2023-02-16T05:08:59;100212.88;;;-0.50;100.00
25722;BME280;13578;53.450;15.496;2023-02-16T05:12:00;100209.00;;;-0.42;100.00
25722;BME280;13578;53.450;15.496;2023-02-16T05:15:19;100202.09;;;-0.50;100.00
25722;BME280;13578;53.450;15.496;2023-02-16T05:18:20;100208.41;;;-0.51;100.00
25722;BME280;13578;53.450;15.496;2023-02-16T05:21:20;100201.38;;;-0.55;100.00
25722;BME280;13578;53.450;15.496;2023-02-16T05:24:30;100204.25;;;-0.59;100.00
25722;BME280;13578;53.450;15.496;2023-02-16T05:27:31;100211.50;;;-0.61;100.00
25722;BME280;13578;53.450;15.496;2023-02-16T05:30:32;100202.66;;;-0.65;100.00
25722;BME280;13578;53.450;15.496;2023-02-16T05:33:33;100201.84;;;-0.67;100.00
25722;BME280;13578;53.450;15.496;2023-02-16T05:36:33;100199.97;;;-0.65;100.00
25722;BME280;13578;53.450;15.496;2023-02-16T05:39:34;100198.22;;;-0.66;100.00
25722;BME280;13578;53.450;15.496;2023-02-16T05:42:35;100212.75;;;-0.70;100.00
25722;BME280;13578;53.450;15.496;2023-02-16T05:45:37;100208.28;;;-0.71;100.00
25722;BME280;13578;53.450;15.496;2023-02-16T05:48:38;100211.88;;;-0.71;100.00
25722;BME280;13578;53.450;15.496;2023-02-16T05:51:38;100208.50;;;-0.77;100.00
25722;BME280;13578;53.450;15.496;2023-02-16T05:54:39;100208.50;;;-0.77;100.00
25722;BME280;13578;53.450;15.496;2023-02-16T05:57:39;100214.00;;;-0.81;100.00
25722;BME280;13578;53.450;15.496;2023-02-16T06:00:40;100202.44;;;-0.84;100.00
25722;BME280;13578;53.450;15.496;2023-02-16T06:03:41;100210.59;;;-0.86;100.00
25722;BME280;13578;53.450;15.496;2023-02-16T06:06:42;100212.47;;;-0.88;100.00
25722;BME280;13578;53.450;15.496;2023-02-16T06:09:43;100216.94;;;-0.87;100.00
25722;BME280;13578;53.450;15.496;2023-02-16T06:12:44;100216.69;;;-0.81;100.00
25722;BME280;13578;53.450;15.496;2023-02-16T06:15:46;100228.38;;;-0.80;100.00
25722;BME280;13578;53.450;15.496;2023-02-16T06:18:46;100230.13;;;-0.54;100.00
25722;BME280;13578;53.450;15.496;2023-02-16T06:21:47;100226.19;;;-0.45;100.00
25722;BME280;13578;53.450;15.496;2023-02-16T06:24:49;100231.66;;;-0.46;100.00
25722;BME280;13578;53.450;15.496;2023-02-16T06:27:49;100242.13;;;-0.39;100.00
25722;BME280;13578;53.450;15.496;2023-02-16T06:30:51;100242.66;;;-0.29;100.00
25722;BME280;13578;53.450;15.496;2023-02-16T06:33:53;100242.63;;;-0.27;100.00
25722;BME280;13578;53.450;15.496;2023-02-16T06:36:55;100238.91;;;-0.25;100.00
25722;BME280;13578;53.450;15.496;2023-02-16T06:39:56;100227.97;;;-0.20;100.00
25722;BME280;13578;53.450;15.496;2023-02-16T06:42:57;100233.19;;;-0.15;100.00
25722;BME280;13578;53.450;15.496;2023-02-16T06:45:57;100220.66;;;-0.18;100.00
25722;BME280;13578;53.450;15.496;2023-02-16T06:48:58;100219.72;;;-0.17;100.00
25722;BME280;13578;53.450;15.496;2023-02-16T06:51:59;100213.41;;;-0.16;100.00
25722;BME280;13578;53.450;15.496;2023-02-16T06:55:00;100216.09;;;-0.16;100.00
25722;BME280;13578;53.450;15.496;2023-02-16T06:58:04;100206.41;;;-0.22;100.00
25722;BME280;13578;53.450;15.496;2023-02-16T07:01:05;100199.16;;;-0.20;100.00
25722;BME280;13578;53.450;15.496;2023-02-16T07:04:06;100210.53;;;-0.11;100.00
25722;BME280;13578;53.450;15.496;2023-02-16T07:07:06;100206.38;;;0.02;100.00
25722;BME280;13578;53.450;15.496;2023-02-16T07:10:08;100199.28;;;-0.01;100.00
25722;BME280;13578;53.450;15.496;2023-02-16T07:13:08;100203.66;;;0.04;100.00
25722;BME280;13578;53.450;15.496;2023-02-16T07:16:09;100201.50;;;0.12;100.00
25722;BME280;13578;53.450;15.496;2023-02-16T07:19:10;100196.84;;;0.15;100.00
25722;BME280;13578;53.450;15.496;2023-02-16T07:22:11;100192.84;;;0.26;100.00
25722;BME280;13578;53.450;15.496;2023-02-16T07:25:11;100196.94;;;0.36;100.00
25722;BME280;13578;53.450;15.496;2023-02-16T07:28:12;100206.53;;;0.43;100.00
25722;BME280;13578;53.450;15.496;2023-02-16T07:31:14;100203.31;;;0.56;100.00
25722;BME280;13578;53.450;15.496;2023-02-16T07:34:15;100209.53;;;0.58;100.00
25722;BME280;13578;53.450;15.496;2023-02-16T07:37:16;100202.22;;;0.60;100.00
25722;BME280;13578;53.450;15.496;2023-02-16T07:40:16;100212.72;;;0.45;100.00
25722;BME280;13578;53.450;15.496;2023-02-16T07:43:17;100202.19;;;0.39;100.00
25722;BME280;13578;53.450;15.496;2023-02-16T07:46:18;100196.72;;;0.41;100.00
25722;BME280;13578;53.450;15.496;2023-02-16T07:49:18;100196.78;;;0.39;100.00
25722;BME280;13578;53.450;15.496;2023-02-16T07:52:19;100202.94;;;0.43;100.00
25722;BME280;13578;53.450;15.496;2023-02-16T07:55:20;100200.72;;;0.53;100.00
25722;BME280;13578;53.450;15.496;2023-02-16T07:58:20;100203.31;;;0.56;100.00
25722;BME280;13578;53.450;15.496;2023-02-16T08:01:28;100199.41;;;0.63;100.00
25722;BME280;13578;53.450;15.496;2023-02-16T08:04:29;100198.28;;;0.69;100.00
25722;BME280;13578;53.450;15.496;2023-02-16T08:07:29;100205.47;;;0.68;100.00
25722;BME280;13578;53.450;15.496;2023-02-16T08:10:30;100202.00;;;0.66;100.00
25722;BME280;13578;53.450;15.496;2023-02-16T08:13:31;100196.78;;;0.61;100.00
25722;BME280;13578;53.450;15.496;2023-02-16T08:16:31;100195.75;;;0.64;100.00
25722;BME280;13578;53.450;15.496;2023-02-16T08:19:33;100189.28;;;0.68;100.00
25722;BME280;13578;53.450;15.496;2023-02-16T08:22:34;100185.56;;;0.71;100.00
25722;BME280;13578;53.450;15.496;2023-02-16T08:25:36;100179.91;;;0.77;100.00
25722;BME280;13578;53.450;15.496;2023-02-16T08:28:37;100179.97;;;0.75;100.00
25722;BME280;13578;53.450;15.496;2023-02-16T08:31:38;100183.84;;;0.90;100.00
25722;BME280;13578;53.450;15.496;2023-02-16T08:34:39;100180.78;;;0.98;100.00
25722;BME280;13578;53.450;15.496;2023-02-16T08:37:40;100190.84;;;0.94;100.00
25722;BME280;13578;53.450;15.496;2023-02-16T08:40:46;100185.34;;;0.96;100.00
25722;BME280;13578;53.450;15.496;2023-02-16T08:43:48;100192.78;;;1.11;100.00
25722;BME280;13578;53.450;15.496;2023-02-16T08:46:50;100189.22;;;1.11;100.00
25722;BME280;13578;53.450;15.496;2023-02-16T08:49:51;100187.34;;;1.13;100.00
25722;BME280;13578;53.450;15.496;2023-02-16T08:52:52;100192.38;;;1.21;100.00
25722;BME280;13578;53.450;15.496;2023-02-16T08:55:54;100198.13;;;1.34;100.00
25722;BME280;13578;53.450;15.496;2023-02-16T08:58:55;100187.88;;;1.40;100.00
25722;BME280;13578;53.450;15.496;2023-02-16T09:01:57;100186.59;;;1.49;100.00
25722;BME280;13578;53.450;15.496;2023-02-16T09:04:58;100187.78;;;1.63;100.00
25722;BME280;13578;53.450;15.496;2023-02-16T09:07:59;100189.25;;;1.70;100.00
25722;BME280;13578;53.450;15.496;2023-02-16T09:11:01;100198.53;;;1.83;100.00
25722;BME280;13578;53.450;15.496;2023-02-16T09:14:02;100208.78;;;1.96;100.00
25722;BME280;13578;53.450;15.496;2023-02-16T09:17:03;100212.38;;;1.96;100.00
25722;BME280;13578;53.450;15.496;2023-02-16T09:20:05;100209.50;;;1.99;100.00
25722;BME280;13578;53.450;15.496;2023-02-16T09:23:07;100217.63;;;1.99;100.00
25722;BME280;13578;53.450;15.496;2023-02-16T09:26:09;100228.19;;;2.05;100.00
25722;BME280;13578;53.450;15.496;2023-02-16T09:29:11;100234.25;;;2.11;100.00
25722;BME280;13578;53.450;15.496;2023-02-16T09:32:12;100238.56;;;2.15;100.00
25722;BME280;13578;53.450;15.496;2023-02-16T09:35:12;100241.94;;;2.20;100.00
25722;BME280;13578;53.450;15.496;2023-02-16T09:38:13;100231.91;;;2.03;100.00
25722;BME280;13578;53.450;15.496;2023-02-16T09:41:40;100239.06;;;2.04;100.00
25722;BME280;13578;53.450;15.496;2023-02-16T09:48:01;100248.97;;;2.24;100.00
25722;BME280;13578;53.450;15.496;2023-02-16T09:51:04;100246.59;;;2.35;100.00
25722;BME280;13578;53.450;15.496;2023-02-16T09:54:34;100245.28;;;2.44;100.00
25722;BME280;13578;53.450;15.496;2023-02-16T10:01:26;100245.69;;;2.54;100.00
25722;BME280;13578;53.450;15.496;2023-02-16T10:04:43;100254.81;;;2.70;100.00
25722;BME280;13578;53.450;15.496;2023-02-16T10:08:04;100246.25;;;2.61;100.00
25722;BME280;13578;53.450;15.496;2023-02-16T10:11:13;100261.19;;;2.69;100.00
25722;BME280;13578;53.450;15.496;2023-02-16T10:14:36;100254.50;;;2.94;100.00
25722;BME280;13578;53.450;15.496;2023-02-16T10:17:52;100262.34;;;3.00;100.00
25722;BME280;13578;53.450;15.496;2023-02-16T10:20:57;100257.97;;;3.15;100.00
25722;BME280;13578;53.450;15.496;2023-02-16T10:24:02;100257.88;;;3.17;100.00
25722;BME280;13578;53.450;15.496;2023-02-16T10:27:10;100252.44;;;3.34;100.00
25722;BME280;13578;53.450;15.496;2023-02-16T10:30:18;100269.69;;;3.51;100.00
25722;BME280;13578;53.450;15.496;2023-02-16T10:36:44;100269.59;;;3.86;100.00
25722;BME280;13578;53.450;15.496;2023-02-16T10:43:51;100278.22;;;3.94;100.00
25722;BME280;13578;53.450;15.496;2023-02-16T10:47:02;100275.06;;;4.02;100.00
25722;BME280;13578;53.450;15.496;2023-02-16T10:50:09;100270.88;;;4.12;100.00
25722;BME280;13578;53.450;15.496;2023-02-16T10:53:20;100277.88;;;4.17;100.00
25722;BME280;13578;53.450;15.496;2023-02-16T10:59:38;100267.31;;;4.28;100.00
25722;BME280;13578;53.450;15.496;2023-02-16T11:02:41;100272.75;;;4.28;100.00
25722;BME280;13578;53.450;15.496;2023-02-16T11:05:43;100277.72;;;4.36;100.00
25722;BME280;13578;53.450;15.496;2023-02-16T11:08:49;100260.00;;;4.44;100.00
25722;BME280;13578;53.450;15.496;2023-02-16T11:11:51;100265.91;;;4.69;100.00
25722;BME280;13578;53.450;15.496;2023-02-16T11:14:56;100256.22;;;4.79;100.00
25722;BME280;13578;53.450;15.496;2023-02-16T11:18:00;100246.34;;;4.92;100.00
25722;BME280;13578;53.450;15.496;2023-02-16T11:21:05;100250.88;;;5.08;100.00
25722;BME280;13578;53.450;15.496;2023-02-16T11:24:09;100259.59;;;5.29;100.00
25722;BME280;13578;53.450;15.496;2023-02-16T11:30:14;100255.25;;;5.41;100.00
25722;BME280;13578;53.450;15.496;2023-02-16T11:33:24;100261.59;;;5.56;100.00
25722;BME280;13578;53.450;15.496;2023-02-16T11:39:36;100269.50;;;5.75;100.00
25722;BME280;13578;53.450;15.496;2023-02-16T11:42:40;100270.97;;;5.66;100.00
25722;BME280;13578;53.450;15.496;2023-02-16T11:45:56;100272.13;;;5.77;100.00
25722;BME280;13578;53.450;15.496;2023-02-16T11:49:25;100265.72;;;5.92;100.00
25722;BME280;13578;53.450;15.496;2023-02-16T11:52:28;100274.13;;;6.03;100.00
25722;BME280;13578;53.450;15.496;2023-02-16T11:55:31;100270.28;;;5.92;100.00
25722;BME280;13578;53.450;15.496;2023-02-16T11:58:32;100266.38;;;5.96;100.00
25722;BME280;13578;53.450;15.496;2023-02-16T12:11:37;100255.63;;;6.09;100.00
25722;BME280;13578;53.450;15.496;2023-02-16T12:15:26;100253.00;;;6.22;100.00
25722;BME280;13578;53.450;15.496;2023-02-16T12:19:00;100240.50;;;6.32;100.00
25722;BME280;13578;53.450;15.496;2023-02-16T12:25:36;100244.22;;;6.31;100.00
25722;BME280;13578;53.450;15.496;2023-02-16T12:29:43;100240.72;;;6.29;100.00
25722;BME280;13578;53.450;15.496;2023-02-16T12:36:10;100229.44;;;6.06;100.00
25722;BME280;13578;53.450;15.496;2023-02-16T12:39:02;100222.06;;;6.08;100.00
25722;BME280;13578;53.450;15.496;2023-02-16T12:45:33;100224.13;;;6.32;100.00
25722;BME280;13578;53.450;15.496;2023-02-16T12:48:40;100222.69;;;6.41;100.00
25722;BME280;13578;53.450;15.496;2023-02-16T12:51:48;100223.75;;;6.38;100.00
25722;BME280;13578;53.450;15.496;2023-02-16T12:58:20;100227.72;;;6.47;100.00
25722;BME280;13578;53.450;15.496;2023-02-16T13:01:24;100220.22;;;6.50;100.00
25722;BME280;13578;53.450;15.496;2023-02-16T13:04:48;100216.34;;;6.40;100.00
25722;BME280;13578;53.450;15.496;2023-02-16T13:07:55;100209.13;;;6.39;100.00
25722;BME280;13578;53.450;15.496;2023-02-16T13:11:22;100208.75;;;6.45;100.00
25722;BME280;13578;53.450;15.496;2023-02-16T13:14:30;100201.06;;;6.38;100.00
25722;BME280;13578;53.450;15.496;2023-02-16T13:17:40;100212.03;;;6.50;100.00
25722;BME280;13578;53.450;15.496;2023-02-16T13:20:46;100204.00;;;6.62;100.00
25722;BME280;13578;53.450;15.496;2023-02-16T13:23:53;100209.63;;;6.73;100.00
25722;BME280;13578;53.450;15.496;2023-02-16T13:27:11;100210.03;;;6.67;100.00
25722;BME280;13578;53.450;15.496;2023-02-16T13:36:48;100205.25;;;6.71;100.00
25722;BME280;13578;53.450;15.496;2023-02-16T13:43:39;100213.88;;;6.77;100.00
25722;BME280;13578;53.450;15.496;2023-02-16T13:46:44;100211.81;;;6.81;100.00
25722;BME280;13578;53.450;15.496;2023-02-16T13:49:55;100206.47;;;6.79;100.00
25722;BME280;13578;53.450;15.496;2023-02-16T13:53:07;100208.25;;;6.93;100.00
25722;BME280;13578;53.450;15.496;2023-02-16T14:02:51;100195.75;;;6.76;100.00
25722;BME280;13578;53.450;15.496;2023-02-16T14:06:27;100200.59;;;6.86;100.00
25722;BME280;13578;53.450;15.496;2023-02-16T14:12:17;100204.22;;;6.99;100.00
25722;BME280;13578;53.450;15.496;2023-02-16T14:15:19;100200.81;;;6.95;100.00
25722;BME280;13578;53.450;15.496;2023-02-16T14:18:34;100203.66;;;6.94;100.00
25722;BME280;13578;53.450;15.496;2023-02-16T14:21:43;100201.13;;;6.91;100.00
25722;BME280;13578;53.450;15.496;2023-02-16T14:24:52;100198.84;;;6.84;100.00
25722;BME280;13578;53.450;15.496;2023-02-16T14:27:54;100202.75;;;6.80;100.00
25722;BME280;13578;53.450;15.496;2023-02-16T14:31:13;100202.47;;;6.58;100.00
25722;BME280;13578;53.450;15.496;2023-02-16T14:34:36;100190.28;;;6.63;100.00
25722;BME280;13578;53.450;15.496;2023-02-16T14:37:40;100197.00;;;6.58;100.00
25722;BME280;13578;53.450;15.496;2023-02-16T14:40:50;100187.75;;;6.60;100.00
25722;BME280;13578;53.450;15.496;2023-02-16T14:51:14;100183.78;;;6.51;100.00
25722;BME280;13578;53.450;15.496;2023-02-16T15:00:52;100176.34;;;6.54;100.00
25722;BME280;13578;53.450;15.496;2023-02-16T15:03:55;100173.63;;;6.54;100.00
25722;BME280;13578;53.450;15.496;2023-02-16T15:06:59;100184.41;;;6.42;100.00
25722;BME280;13578;53.450;15.496;2023-02-16T15:10:03;100182.28;;;6.33;100.00
25722;BME280;13578;53.450;15.496;2023-02-16T15:13:03;100176.75;;;6.34;100.00
25722;BME280;13578;53.450;15.496;2023-02-16T15:16:05;100175.28;;;6.29;100.00
25722;BME280;13578;53.450;15.496;2023-02-16T15:19:14;100170.03;;;6.26;100.00
25722;BME280;13578;53.450;15.496;2023-02-16T15:22:22;100165.78;;;6.22;100.00
25722;BME280;13578;53.450;15.496;2023-02-16T15:25:50;100172.75;;;6.26;100.00
25722;BME280;13578;53.450;15.496;2023-02-16T15:28:56;100173.06;;;6.21;100.00
25722;BME280;13578;53.450;15.496;2023-02-16T15:31:58;100164.00;;;6.20;100.00
25722;BME280;13578;53.450;15.496;2023-02-16T15:35:09;100170.00;;;6.13;100.00
25722;BME280;13578;53.450;15.496;2023-02-16T15:38:36;100170.84;;;6.13;100.00
25722;BME280;13578;53.450;15.496;2023-02-16T15:41:40;100173.19;;;6.05;100.00
25722;BME280;13578;53.450;15.496;2023-02-16T15:44:41;100179.81;;;6.15;100.00
25722;BME280;13578;53.450;15.496;2023-02-16T15:47:43;100181.19;;;6.08;100.00
25722;BME280;13578;53.450;15.496;2023-02-16T15:50:44;100180.50;;;6.04;100.00
25722;BME280;13578;53.450;15.496;2023-02-16T15:53:52;100170.78;;;6.00;100.00
25722;BME280;13578;53.450;15.496;2023-02-16T15:56:57;100170.88;;;5.99;100.00
25722;BME280;13578;53.450;15.496;2023-02-16T16:00:03;100173.00;;;6.08;100.00
25722;BME280;13578;53.450;15.496;2023-02-16T16:03:07;100163.19;;;6.06;100.00
25722;BME280;13578;53.450;15.496;2023-02-16T16:06:09;100164.47;;;6.00;100.00
25722;BME280;13578;53.450;15.496;2023-02-16T16:09:20;100170.69;;;6.02;100.00
25722;BME280;13578;53.450;15.496;2023-02-16T16:12:23;100160.53;;;6.04;100.00
25722;BME280;13578;53.450;15.496;2023-02-16T16:15:26;100161.50;;;6.03;100.00
25722;BME280;13578;53.450;15.496;2023-02-16T16:18:41;100163.63;;;5.98;100.00
25722;BME280;13578;53.450;15.496;2023-02-16T16:21:53;100150.84;;;5.85;100.00
25722;BME280;13578;53.450;15.496;2023-02-16T16:24:54;100154.97;;;5.91;100.00
25722;BME280;13578;53.450;15.496;2023-02-16T16:27:56;100158.13;;;5.99;100.00
25722;BME280;13578;53.450;15.496;2023-02-16T16:34:33;100149.19;;;5.83;100.00
25722;BME280;13578;53.450;15.496;2023-02-16T16:37:34;100150.63;;;5.74;100.00
25722;BME280;13578;53.450;15.496;2023-02-16T16:40:37;100149.47;;;5.78;100.00
25722;BME280;13578;53.450;15.496;2023-02-16T16:43:54;100155.50;;;5.83;100.00
25722;BME280;13578;53.450;15.496;2023-02-16T16:46:55;100148.25;;;5.97;100.00
25722;BME280;13578;53.450;15.496;2023-02-16T16:50:44;100139.94;;;5.85;100.00
25722;BME280;13578;53.450;15.496;2023-02-16T16:56:31;100119.94;;;5.57;100.00
25722;BME280;13578;53.450;15.496;2023-02-16T16:59:34;100117.69;;;5.64;100.00
25722;BME280;13578;53.450;15.496;2023-02-16T17:02:36;100105.53;;;5.55;100.00
25722;BME280;13578;53.450;15.496;2023-02-16T17:05:36;100108.56;;;5.51;100.00
25722;BME280;13578;53.450;15.496;2023-02-16T17:08:39;100119.25;;;5.54;100.00
25722;BME280;13578;53.450;15.496;2023-02-16T17:11:41;100114.28;;;5.46;100.00
25722;BME280;13578;53.450;15.496;2023-02-16T17:14:41;100110.41;;;5.50;100.00
25722;BME280;13578;53.450;15.496;2023-02-16T17:17:42;100105.03;;;5.49;100.00
25722;BME280;13578;53.450;15.496;2023-02-16T17:20:43;100109.63;;;5.48;100.00
25722;BME280;13578;53.450;15.496;2023-02-16T17:23:45;100098.53;;;5.51;100.00
25722;BME280;13578;53.450;15.496;2023-02-16T17:26:45;100100.38;;;5.51;100.00
25722;BME280;13578;53.450;15.496;2023-02-16T17:29:46;100100.19;;;5.54;100.00
25722;BME280;13578;53.450;15.496;2023-02-16T17:32:47;100099.69;;;5.62;100.00
25722;BME280;13578;53.450;15.496;2023-02-16T17:35:47;100102.69;;;5.71;100.00
25722;BME280;13578;53.450;15.496;2023-02-16T17:38:48;100103.47;;;5.73;100.00
25722;BME280;13578;53.450;15.496;2023-02-16T17:41:49;100107.34;;;5.69;100.00
25722;BME280;13578;53.450;15.496;2023-02-16T17:44:50;100094.13;;;5.63;100.00
25722;BME280;13578;53.450;15.496;2023-02-16T17:47:51;100098.63;;;5.64;100.00
25722;BME280;13578;53.450;15.496;2023-02-16T17:50:58;100100.84;;;5.72;100.00
25722;BME280;13578;53.450;15.496;2023-02-16T17:53:59;100100.84;;;5.72;100.00